Time;durP1;ratioP1;P1;durP2;ratioP2;P2;SDS_P1;SDS_P2;PMS_P1;PMS_P2;Temp;Humidity;BMP_temperature;BMP_pressure;BME280_temperature;BME280_humidity;BME280_pressure;Samples;Min_cycle;Max_cycle;Signal;HPM_P1;HPM_P2
2022/11/18 00:00:00;;;;;;;5.50;3.05;;;;;;;7.79;100.00;99351.88;10542476;28;20035;-68
2022/11/18 00:05:00;;;;;;;4.85;4.00;;;;;;;7.78;100.00;99350.19;10541911;28;20032;-68
2022/11/18 00:10:01;;;;;;;7.47;3.25;;;;;;;7.77;100.00;99353.94;10542232;28;20040;-67
2022/11/18 00:15:01;;;;;;;8.32;3.45;;;;;;;7.76;100.00;99348.78;10542225;28;20104;-67
2022/11/18 00:20:02;;;;;;;3.38;3.10;;;;;;;7.74;100.00;99365.16;10541194;28;20392;-68
2022/11/18 00:25:02;;;;;;;6.13;3.80;;;;;;;7.75;100.00;99376.75;10542436;28;20043;-68
2022/11/18 00:30:03;;;;;;;2.55;2.35;;;;;;;7.76;100.00;99390.03;10557923;28;20119;-68
2022/11/18 00:35:04;;;;;;;8.55;3.70;;;;;;;7.78;100.00;99390.63;10541584;28;20410;-68
2022/11/18 00:40:04;;;;;;;5.82;2.85;;;;;;;7.74;100.00;99399.38;10539796;28;20059;-68
2022/11/18 00:45:05;;;;;;;4.40;3.47;;;;;;;7.75;100.00;99403.69;10540166;28;20056;-67
2022/11/18 00:50:06;;;;;;;4.78;3.33;;;;;;;7.76;100.00;99413.47;10541131;28;20047;-68
2022/11/18 00:55:07;;;;;;;7.22;4.43;;;;;;;7.68;100.00;99422.59;10539473;28;20527;-68
2022/11/18 01:00:08;;;;;;;9.75;3.88;;;;;;;7.66;100.00;99435.47;10540599;28;20032;-67
2022/11/18 01:05:08;;;;;;;5.10;4.50;;;;;;;7.61;100.00;99425.31;10539291;28;20032;-67
2022/11/18 01:10:09;;;;;;;5.10;3.65;;;;;;;7.62;100.00;99437.75;10540451;28;20040;-68
2022/11/18 01:15:09;;;;;;;5.18;3.67;;;;;;;7.55;100.00;99449.59;10539824;28;20032;-68
2022/11/18 01:20:10;;;;;;;6.72;4.40;;;;;;;7.56;100.00;99462.03;10538430;28;20028;-67
2022/11/18 01:25:10;;;;;;;6.78;4.22;;;;;;;7.51;100.00;99465.38;10540160;28;20103;-67
2022/11/18 01:30:11;;;;;;;11.90;4.10;;;;;;;7.52;100.00;99467.00;10540701;28;20028;-68
2022/11/18 01:35:12;;;;;;;10.70;5.18;;;;;;;7.54;100.00;99474.91;10539980;28;20040;-68
2022/11/18 01:40:12;;;;;;;5.22;3.92;;;;;;;7.47;100.00;99483.00;10556875;28;20503;-67
2022/11/18 01:45:23;;;;;;;6.00;4.25;;;;;;;7.43;100.00;99493.38;10562338;28;20059;-68
2022/11/18 01:50:24;;;;;;;14.60;4.00;;;;;;;7.46;100.00;99492.09;10540327;28;20507;-67
2022/11/18 01:55:25;;;;;;;4.32;4.03;;;;;;;7.42;100.00;99491.69;10538313;28;20036;-67
2022/11/18 02:00:26;;;;;;;9.73;4.10;;;;;;;7.36;100.00;99495.22;10557280;28;20036;-68
2022/11/18 02:05:26;;;;;;;6.45;4.05;;;;;;;7.42;100.00;99496.25;10546638;28;20471;-68
2022/11/18 02:10:27;;;;;;;6.28;4.28;;;;;;;7.42;100.00;99507.03;10547042;28;20096;-67
2022/11/18 02:15:39;;;;;;;13.13;5.47;;;;;;;7.39;100.00;99512.84;10563276;28;20039;-67
2022/11/18 02:20:41;;;;;;;6.90;4.18;;;;;;;7.30;100.00;99524.88;10547103;28;20032;-68
2022/11/18 02:26:22;;;;;;;7.55;4.85;;;;;;;7.34;100.00;99520.72;10563489;28;20028;-68
2022/11/18 02:31:47;;;;;;;7.18;4.35;;;;;;;7.23;100.00;99531.09;10562595;28;20028;-67
2022/11/18 02:36:54;;;;;;;6.10;4.25;;;;;;;7.15;100.00;99539.41;10548075;28;20075;-68
2022/11/18 02:41:54;;;;;;;9.68;4.55;;;;;;;7.15;100.00;99542.09;10545583;28;20027;-68
2022/11/18 02:46:58;;;;;;;6.22;5.38;;;;;;;7.10;100.00;99546.44;10545661;28;20044;-67
2022/11/18 02:51:58;;;;;;;5.20;4.70;;;;;;;7.09;100.00;99545.63;10561258;28;20089;-67
2022/11/18 02:56:59;;;;;;;7.10;4.07;;;;;;;7.07;100.00;99553.06;10543429;28;20537;-67
2022/11/18 03:01:59;;;;;;;5.93;4.32;;;;;;;7.18;100.00;99549.75;10560797;28;20368;-68
2022/11/18 03:07:10;;;;;;;8.52;5.97;;;;;;;7.32;100.00;99555.94;10543789;28;20032;-67
2022/11/18 03:12:22;;;;;;;14.50;5.25;;;;;;;7.46;100.00;99560.25;10543488;28;20410;-68
2022/11/18 03:17:43;;;;;;;8.60;4.65;;;;;;;7.69;100.00;99567.06;10544688;28;20024;-67
2022/11/18 03:22:53;;;;;;;5.93;4.75;;;;;;;7.84;100.00;99564.09;10545726;28;20498;-67
2022/11/18 03:28:01;;;;;;;5.45;4.88;;;;;;;8.01;100.00;99562.63;10544246;28;20040;-67
2022/11/18 03:33:04;;;;;;;7.20;4.93;;;;;;;8.13;100.00;99565.44;10560931;28;20024;-67
2022/11/18 03:38:12;;;;;;;15.45;6.35;;;;;;;8.18;100.00;99572.91;10558937;28;20036;-67
2022/11/18 03:43:15;;;;;;;6.72;5.28;;;;;;;8.10;100.00;99588.28;10559131;28;20055;-67
2022/11/18 03:48:25;;;;;;;8.73;5.63;;;;;;;7.89;100.00;99599.34;10558677;28;20058;-68
2022/11/18 03:53:26;;;;;;;6.50;4.18;;;;;;;7.77;100.00;99598.34;10559110;28;20048;-67
2022/11/18 03:58:29;;;;;;;7.03;4.07;;;;;;;7.74;100.00;99604.97;10558659;28;20418;-68
2022/11/18 04:03:30;;;;;;;7.45;4.18;;;;;;;7.72;100.00;99607.03;10544714;28;20031;-67
2022/11/18 04:08:34;;;;;;;9.55;5.45;;;;;;;7.72;100.00;99611.59;10554726;28;20036;-68
2022/11/18 04:13:34;;;;;;;11.90;5.50;;;;;;;7.69;100.00;99616.41;10567609;28;20028;-67
2022/11/18 04:18:35;;;;;;;7.28;5.05;;;;;;;7.79;100.00;99625.91;10540506;28;20082;-68
2022/11/18 04:23:35;;;;;;;7.45;4.18;;;;;;;7.86;100.00;99640.19;10540155;28;20028;-68
2022/11/18 04:28:35;;;;;;;18.23;4.45;;;;;;;7.81;100.00;99634.59;10542945;28;20036;-68
2022/11/18 04:33:36;;;;;;;8.07;4.22;;;;;;;7.84;100.00;99639.56;10557485;28;20452;-68
2022/11/18 04:38:36;;;;;;;10.65;4.40;;;;;;;7.78;100.00;99661.97;10539582;28;20043;-68
2022/11/18 04:43:36;;;;;;;6.88;4.82;;;;;;;7.85;100.00;99665.50;10541313;28;20039;-68
2022/11/18 04:48:37;;;;;;;5.38;4.63;;;;;;;7.92;100.00;99664.44;10540006;28;20063;-67
2022/11/18 04:53:37;;;;;;;7.10;5.10;;;;;;;7.88;100.00;99667.75;10540643;28;20070;-67
2022/11/18 04:58:37;;;;;;;12.10;5.60;;;;;;;7.80;100.00;99684.16;10540277;28;20036;-66
2022/11/18 05:03:38;;;;;;;7.88;4.72;;;;;;;7.68;100.00;99679.38;10540761;28;20036;-67
2022/11/18 05:08:38;;;;;;;15.05;5.22;;;;;;;7.64;100.00;99693.50;10540041;28;20053;-67
2022/11/18 05:13:39;;;;;;;21.92;4.28;;;;;;;7.60;100.00;99694.97;10539965;28;20107;-68
2022/11/18 05:18:39;;;;;;;9.90;5.43;;;;;;;7.53;100.00;99697.66;10539960;28;20059;-67
2022/11/18 05:23:39;;;;;;;6.65;5.13;;;;;;;7.51;100.00;99705.09;10539754;28;20082;-67
2022/11/18 05:28:40;;;;;;;14.05;6.18;;;;;;;7.52;100.00;99711.31;10538340;28;20089;-68
2022/11/18 05:33:40;;;;;;;12.68;4.32;;;;;;;7.53;100.00;99713.81;10539907;28;20468;-67
2022/11/18 05:38:41;;;;;;;14.00;5.80;;;;;;;7.48;100.00;99716.28;10564390;28;20107;-67
2022/11/18 05:43:41;;;;;;;8.77;5.20;;;;;;;7.45;100.00;99725.59;10563685;28;20365;-67
2022/11/18 05:48:41;;;;;;;7.78;4.25;;;;;;;7.39;100.00;99728.31;10547330;28;20086;-66
2022/11/18 05:53:42;;;;;;;7.82;3.95;;;;;;;7.36;100.00;99728.72;10547134;28;20468;-67
2022/11/18 05:58:42;;;;;;;5.60;4.30;;;;;;;7.34;100.00;99736.16;10562551;28;20384;-67
2022/11/18 06:03:43;;;;;;;17.23;4.75;;;;;;;7.25;100.00;99740.09;10546711;28;20043;-67
2022/11/18 06:08:46;;;;;;;7.20;4.97;;;;;;;7.19;100.00;99750.63;10545270;28;20035;-66
2022/11/18 06:14:02;;;;;;;9.02;3.78;;;;;;;7.12;100.00;99760.56;10561928;28;20073;-68
2022/11/18 06:19:02;;;;;;;12.52;4.85;;;;;;;7.12;100.00;99763.25;10545649;28;20144;-67
2022/11/18 06:24:03;;;;;;;9.18;5.15;;;;;;;7.09;100.00;99766.34;10558662;28;20044;-68
2022/11/18 06:29:04;;;;;;;8.70;4.25;;;;;;;7.10;100.00;99775.25;10555734;28;20444;-67
2022/11/18 06:34:04;;;;;;;8.65;3.85;;;;;;;7.15;100.00;99791.66;10549177;28;20070;-67
2022/11/18 06:39:05;;;;;;;8.35;2.28;;;;;;;7.12;100.00;99792.06;10545808;28;20066;-66
2022/11/18 06:44:05;;;;;;;11.77;4.63;;;;;;;7.25;100.00;99799.34;10544287;28;20036;-67
2022/11/18 06:49:06;;;;;;;16.88;5.00;;;;;;;7.29;100.00;99814.03;10543299;28;20063;-67
2022/11/18 06:54:06;;;;;;;9.73;5.05;;;;;;;7.29;100.00;99808.66;10545558;28;20466;-67
2022/11/18 06:59:06;;;;;;;11.75;5.13;;;;;;;7.37;100.00;99827.31;10546862;28;20039;-67
2022/11/18 07:04:07;;;;;;;13.65;4.78;;;;;;;7.44;100.00;99831.69;10525893;28;20116;-67
2022/11/18 07:09:07;;;;;;;9.60;4.10;;;;;;;7.60;100.00;99835.88;10544357;28;20024;-67
2022/11/18 07:14:08;;;;;;;9.73;4.68;;;;;;;7.72;100.00;99846.03;10543944;28;20031;-68
2022/11/18 07:19:09;;;;;;;8.30;4.00;;;;;;;7.82;100.00;99857.28;10559532;28;20043;-67
2022/11/18 07:24:11;;;;;;;9.10;4.38;;;;;;;7.95;100.00;99851.91;10543919;28;20036;-67
2022/11/18 07:29:12;;;;;;;8.60;4.80;;;;;;;8.01;100.00;99861.00;10558862;28;20160;-68
2022/11/18 07:34:12;;;;;;;11.45;4.30;;;;;;;8.03;100.00;99870.56;10544738;28;20165;-66
2022/11/18 07:39:13;;;;;;;10.02;5.05;;;;;;;8.02;100.00;99882.38;10541605;28;20123;-68
2022/11/18 07:44:13;;;;;;;10.48;4.88;;;;;;;8.07;100.00;99895.22;10542578;28;20036;-68
2022/11/18 07:49:14;;;;;;;10.75;4.95;;;;;;;8.04;100.00;99896.50;10541914;28;20059;-66
2022/11/18 07:54:17;;;;;;;7.00;4.60;;;;;;;8.06;100.00;99905.19;10542072;28;20044;-67
2022/11/18 07:59:17;;;;;;;8.60;5.22;;;;;;;8.19;100.00;99919.72;10556971;28;20050;-66
2022/11/18 08:04:18;;;;;;;9.70;4.85;;;;;;;8.38;100.00;99924.34;10540060;28;20441;-69
2022/11/18 08:09:18;;;;;;;12.30;6.10;;;;;;;8.45;100.00;99929.72;10542929;28;20035;-70
2022/11/18 08:14:20;;;;;;;12.80;5.35;;;;;;;8.54;100.00;99940.09;10540944;28;20032;-68
2022/11/18 08:19:21;;;;;;;16.45;4.82;;;;;;;8.60;100.00;99947.38;10541081;28;20040;-69
2022/11/18 08:24:21;;;;;;;7.20;3.70;;;;;;;8.65;100.00;99957.56;10541744;28;20035;-68
2022/11/18 08:29:21;;;;;;;5.65;3.75;;;;;;;8.69;100.00;99953.41;10540826;28;20461;-68
2022/11/18 08:34:22;;;;;;;7.95;5.05;;;;;;;8.77;100.00;99963.16;10540161;28;20134;-68
2022/11/18 08:39:22;;;;;;;11.93;4.85;;;;;;;8.78;100.00;99967.53;10540507;28;20246;-68
2022/11/18 08:44:23;;;;;;;4.45;3.33;;;;;;;8.81;100.00;99970.63;10546529;28;20434;-69
2022/11/18 08:49:23;;;;;;;17.17;4.72;;;;;;;8.84;100.00;99972.91;10548864;28;20109;-70
2022/11/18 08:54:23;;;;;;;11.02;3.88;;;;;;;8.87;100.00;99985.19;10540598;28;20063;-69
2022/11/18 08:59:24;;;;;;;11.23;5.10;;;;;;;8.94;100.00;99991.38;10540126;28;20070;-68
2022/11/18 09:04:24;;;;;;;22.45;4.22;;;;;;;9.05;100.00;99998.84;10540049;28;20487;-68
2022/11/18 09:09:25;;;;;;;14.18;4.65;;;;;;;9.09;100.00;100001.94;10539437;28;20043;-68
2022/11/18 09:14:25;;;;;;;9.25;4.35;;;;;;;9.14;100.00;100010.28;10540013;28;20043;-70
2022/11/18 09:19:25;;;;;;;11.65;4.25;;;;;;;9.14;100.00;100010.28;10539055;28;20115;-68
2022/11/18 09:24:26;;;;;;;6.03;4.10;;;;;;;9.07;100.00;100006.75;10538235;28;20031;-72
2022/11/18 09:29:26;;;;;;;9.75;3.60;;;;;;;9.04;100.00;100004.47;10555704;28;20043;-72
2022/11/18 09:34:27;;;;;;;8.30;3.13;;;;;;;9.07;100.00;100002.19;10538265;28;20361;-68
2022/11/18 09:39:28;;;;;;;5.45;2.70;;;;;;;9.20;100.00;100014.00;10555277;28;20050;-71
2022/11/18 09:44:29;;;;;;;17.98;3.78;;;;;;;9.27;100.00;100022.91;10537498;28;20600;-68
2022/11/18 09:49:40;;;;;;;8.43;3.42;;;;;;;9.35;100.00;100036.22;10538042;28;20390;-70
2022/11/18 09:54:40;;;;;;;3.60;3.28;;;;;;;9.42;100.00;100050.53;10537522;28;20115;-69
2022/11/18 09:59:41;;;;;;;3.45;2.90;;;;;;;9.46;100.00;100065.28;10520944;28;20043;-68
2022/11/18 10:04:41;;;;;;;11.85;3.28;;;;;;;9.49;100.00;100058.63;10521616;28;20028;-69
2022/11/18 10:09:41;;;;;;;6.90;4.47;;;;;;;9.59;100.00;100072.53;10537827;28;20094;-68
2022/11/18 10:14:58;;;;;;;9.57;2.35;;;;;;;9.69;100.00;100072.91;10537850;28;20040;-69
2022/11/18 10:20:17;;;;;;;7.22;3.50;;;;;;;9.82;100.00;100080.16;10540552;28;20381;-68
2022/11/18 10:25:18;;;;;;;6.07;3.28;;;;;;;9.84;100.00;100085.38;10545591;28;20038;-68
2022/11/18 10:30:22;;;;;;;11.20;4.65;;;;;;;9.84;100.00;100080.78;10561273;28;20032;-68
2022/11/18 10:35:36;;;;;;;15.88;3.97;;;;;;;9.96;100.00;100091.78;10563572;28;20062;-69
2022/11/18 10:40:37;;;;;;;5.97;3.83;;;;;;;10.11;100.00;100086.09;10543945;28;20456;-68
2022/11/18 10:45:38;;;;;;;5.82;3.95;;;;;;;10.11;100.00;100094.22;10545279;28;20044;-68
2022/11/18 10:50:40;;;;;;;12.73;4.30;;;;;;;10.48;100.00;100093.44;10560746;28;20020;-67
2022/11/18 10:55:40;;;;;;;6.70;3.53;;;;;;;10.66;100.00;100097.31;10559765;28;20028;-68
2022/11/18 11:00:42;;;;;;;12.65;2.83;;;;;;;10.73;100.00;100102.69;10552122;28;20085;-69
2022/11/18 11:05:43;;;;;;;20.40;4.65;;;;;;;10.47;100.00;100107.22;10561264;28;20094;-68
2022/11/18 11:10:57;;;;;;;15.02;4.68;;;;;;;10.24;100.00;100113.09;10545615;28;20460;-67
2022/11/18 11:16:00;;;;;;;4.72;4.32;;;;;;;9.98;100.00;100109.44;10543984;28;20383;-67
2022/11/18 11:21:00;;;;;;;8.98;4.30;;;;;;;9.94;100.00;100104.69;10543581;28;20035;-69
2022/11/18 11:26:03;;;;;;;9.15;4.43;;;;;;;10.11;100.00;100116.69;10542326;28;20036;-69
2022/11/18 11:31:21;;;;;;;25.92;4.22;;;;;;;10.21;100.00;100118.94;10558975;28;20124;-71
2022/11/18 11:36:35;;;;;;;8.65;4.72;;;;;;;10.34;100.00;100123.50;10557037;28;20028;-70
2022/11/18 11:41:46;;;;;;;8.10;5.43;;;;;;;10.45;100.00;100123.66;10497992;28;20052;-70
2022/11/18 11:52:18;;;;;;;7.53;6.07;;;;;;;10.62;100.00;100144.81;10555118;28;20052;-68
2022/11/18 11:57:44;;;;;;;12.25;6.05;;;;;;;10.58;100.00;100138.19;10557838;28;20051;-67
2022/11/18 12:03:09;;;;;;;12.77;8.05;;;;;;;10.44;100.00;100135.53;10556576;28;20115;-67
2022/11/18 12:08:23;;;;;;;11.55;7.00;;;;;;;10.26;100.00;100135.41;10542735;28;20321;-69
2022/11/18 12:13:36;;;;;;;8.90;6.72;;;;;;;10.27;100.00;100142.47;10557907;28;20035;-66
2022/11/18 12:18:41;;;;;;;9.38;7.95;;;;;;;10.33;100.00;100144.31;10541056;28;20058;-69
2022/11/18 12:23:41;;;;;;;10.70;6.78;;;;;;;10.35;100.00;100142.25;10557348;28;20050;-67
2022/11/18 12:28:43;;;;;;;8.98;7.78;;;;;;;10.32;100.00;100155.38;10557164;28;20109;-68
2022/11/18 12:33:48;;;;;;;10.45;7.70;;;;;;;10.07;100.00;100152.50;10539152;28;20099;-69
2022/11/18 12:38:48;;;;;;;15.98;8.32;;;;;;;9.90;100.00;100149.44;10540523;28;20240;-68
2022/11/18 12:43:49;;;;;;;13.80;8.50;;;;;;;9.89;100.00;100163.97;10540043;28;20028;-69
2022/11/18 12:48:50;;;;;;;11.25;8.57;;;;;;;9.96;100.00;100162.13;10548418;28;20444;-66
2022/11/18 12:53:51;;;;;;;10.80;9.07;;;;;;;9.94;100.00;100167.72;10566067;28;20056;-67
2022/11/18 12:58:52;;;;;;;17.92;9.80;;;;;;;9.98;100.00;100176.22;10538919;28;20024;-67
2022/11/18 13:04:10;;;;;;;13.75;11.02;;;;;;;10.05;100.00;100177.06;10556575;28;20028;-65
2022/11/18 13:09:15;;;;;;;16.75;10.48;;;;;;;10.09;100.00;100182.88;10538505;28;20329;-65
2022/11/18 13:19:56;;;;;;;15.27;8.95;;;;;;;9.99;100.00;100199.56;10554727;28;20032;-67
2022/11/18 13:24:56;;;;;;;16.23;8.77;;;;;;;9.95;100.00;100199.13;10543877;28;20059;-66
2022/11/18 13:30:05;;;;;;;14.63;8.35;;;;;;;9.91;100.00;100197.88;10542935;28;20036;-67
2022/11/18 13:35:20;;;;;;;20.40;10.68;;;;;;;9.91;100.00;100202.47;10555435;28;20127;-66
2022/11/18 13:40:37;;;;;;;16.85;9.73;;;;;;;10.05;100.00;100203.28;10538465;28;20024;-66
2022/11/18 13:45:37;;;;;;;12.02;10.75;;;;;;;10.20;100.00;100206.56;10538184;28;20080;-67
2022/11/18 13:50:39;;;;;;;16.88;11.25;;;;;;;10.19;100.00;100210.31;10538526;28;20036;-64
2022/11/18 13:55:51;;;;;;;12.90;10.05;;;;;;;10.27;100.00;100217.41;10540885;28;20031;-66
2022/11/18 14:00:56;;;;;;;11.60;10.40;;;;;;;10.17;100.00;100212.41;10545587;28;20032;-66
2022/11/18 14:05:57;;;;;;;10.90;9.10;;;;;;;10.09;100.00;100223.47;10545305;28;20479;-66
2022/11/18 14:10:57;;;;;;;21.50;9.63;;;;;;;10.06;100.00;100221.19;10561693;28;20036;-68
2022/11/18 14:16:02;;;;;;;17.40;10.43;;;;;;;10.01;100.00;100229.91;10545216;28;20032;-67
2022/11/18 14:21:03;;;;;;;11.27;10.20;;;;;;;9.94;100.00;100234.50;10562696;28;20055;-67
2022/11/18 14:26:04;;;;;;;14.70;9.60;;;;;;;9.80;100.00;100239.09;10545689;28;20456;-69
2022/11/18 14:31:20;;;;;;;9.65;8.65;;;;;;;9.74;100.00;100240.75;10561227;28;20527;-68
2022/11/18 14:36:20;;;;;;;12.27;7.45;;;;;;;9.73;100.00;100243.66;10562514;28;20028;-68
2022/11/18 14:46:41;;;;;;;12.48;8.32;;;;;;;9.72;100.00;100260.94;10557800;28;20068;-68
2022/11/18 14:51:41;;;;;;;9.57;8.57;;;;;;;9.78;100.00;100265.50;10491160;28;20432;-67
2022/11/18 14:56:42;;;;;;;7.05;6.28;;;;;;;9.70;100.00;100258.44;10544712;28;20040;-68
2022/11/18 15:01:42;;;;;;;12.93;6.97;;;;;;;9.46;100.00;100272.56;10543291;28;20502;-68
2022/11/18 15:06:44;;;;;;;18.00;8.25;;;;;;;9.41;100.00;100277.72;10560830;28;20052;-67
2022/11/18 15:11:44;;;;;;;16.85;8.75;;;;;;;9.42;100.00;100274.84;10542280;28;20380;-68
2022/11/18 15:16:44;;;;;;;14.23;8.18;;;;;;;9.49;100.00;100277.53;10543931;28;20044;-69
2022/11/18 15:21:45;;;;;;;9.32;8.43;;;;;;;9.50;100.00;100287.31;10560095;28;20035;-71
2022/11/18 15:26:45;;;;;;;14.63;8.73;;;;;;;9.47;100.00;100299.34;10525569;28;20047;-71
2022/11/18 15:31:46;;;;;;;8.75;6.85;;;;;;;9.45;100.00;100300.63;10559249;28;20035;-70
2022/11/18 15:36:46;;;;;;;8.55;6.72;;;;;;;9.41;100.00;100307.44;10526685;28;20044;-69
2022/11/18 15:41:47;;;;;;;8.73;6.35;;;;;;;9.38;100.00;100315.97;10562389;28;20028;-70
2022/11/18 15:46:48;;;;;;;7.40;6.75;;;;;;;9.33;100.00;100324.69;10547972;28;20052;-70
2022/11/18 15:51:48;;;;;;;6.70;6.03;;;;;;;9.29;100.00;100328.84;10544458;28;20028;-70
2022/11/18 15:56:49;;;;;;;16.35;8.30;;;;;;;9.24;100.00;100334.84;10541539;28;20028;-70
2022/11/18 16:01:49;;;;;;;14.02;8.57;;;;;;;9.27;100.00;100339.03;10542865;28;20032;-71
2022/11/18 16:06:49;;;;;;;13.90;8.88;;;;;;;9.25;100.00;100346.47;10558119;28;20128;-70
2022/11/18 16:17:09;;;;;;;10.20;8.55;;;;;;;9.24;100.00;100344.81;10540792;28;20036;-71
2022/11/18 16:22:09;;;;;;;10.90;8.45;;;;;;;9.22;100.00;100355.00;10540279;28;20036;-70
2022/11/18 16:27:10;;;;;;;22.88;9.35;;;;;;;9.21;100.00;100348.75;10540531;28;20064;-70
2022/11/18 16:32:11;;;;;;;11.18;9.13;;;;;;;9.21;100.00;100358.75;10522960;28;20032;-70
2022/11/18 16:37:11;;;;;;;10.68;8.73;;;;;;;9.20;100.00;100352.50;10556561;28;20021;-70
2022/11/18 16:42:12;;;;;;;21.85;9.07;;;;;;;9.20;100.00;100362.47;10540870;28;20491;-70
2022/11/18 16:47:13;;;;;;;10.60;8.88;;;;;;;9.26;100.00;100367.91;10541514;28;20130;-70
2022/11/18 16:52:13;;;;;;;13.10;8.85;;;;;;;9.31;100.00;100375.41;10540781;28;20043;-70
2022/11/18 16:57:14;;;;;;;15.52;10.50;;;;;;;9.31;100.00;100375.41;10540268;28;20352;-69
2022/11/18 17:02:14;;;;;;;10.85;9.75;;;;;;;9.27;100.00;100384.94;10538715;28;20036;-70
2022/11/18 17:07:16;;;;;;;19.67;10.65;;;;;;;9.29;100.00;100388.28;10540384;28;20054;-70
2022/11/18 17:12:16;;;;;;;11.25;10.15;;;;;;;9.31;100.00;100391.59;10539195;28;20040;-70
2022/11/18 17:17:18;;;;;;;17.85;12.23;;;;;;;9.37;100.00;100398.91;10538676;28;20105;-70
2022/11/18 17:22:19;;;;;;;17.60;12.30;;;;;;;9.37;100.00;100401.63;10539338;28;20032;-71
2022/11/18 17:27:19;;;;;;;13.55;11.80;;;;;;;9.40;100.00;100411.19;10540228;28;20043;-69
2022/11/18 17:32:19;;;;;;;16.35;12.13;;;;;;;9.44;100.00;100410.56;10546142;28;20085;-69
2022/11/18 17:37:20;;;;;;;20.30;11.93;;;;;;;9.44;100.00;100410.56;10546738;28;20365;-70
2022/11/18 17:42:24;;;;;;;20.75;12.57;;;;;;;9.44;100.00;100420.56;10546242;28;20066;-69
2022/11/18 17:47:24;;;;;;;15.90;10.95;;;;;;;9.40;100.00;100414.72;10548474;28;20345;-69
2022/11/18 17:52:25;;;;;;;21.40;12.07;;;;;;;9.42;100.00;100422.66;10552269;28;20032;-68
2022/11/18 17:57:25;;;;;;;14.18;9.93;;;;;;;9.39;100.00;100429.28;10554459;28;20040;-69
2022/11/18 18:02:26;;;;;;;12.35;10.20;;;;;;;9.40;100.00;100449.84;10551799;28;20040;-70
2022/11/18 18:07:28;;;;;;;12.90;10.07;;;;;;;9.42;100.00;100458.59;10552767;28;20081;-70
2022/11/18 18:17:47;;;;;;;17.77;10.00;;;;;;;9.54;100.00;100456.16;10546023;28;20036;-70
2022/11/18 18:22:48;;;;;;;13.27;9.00;;;;;;;9.56;100.00;100462.19;10546661;28;20496;-69
2022/11/18 18:27:48;;;;;;;12.85;9.85;;;;;;;9.62;100.00;100477.59;10544245;28;20036;-69
2022/11/18 18:32:48;;;;;;;16.15;12.02;;;;;;;9.64;100.00;100469.31;10545101;28;20048;-70
2022/11/18 18:37:49;;;;;;;14.07;12.25;;;;;;;9.67;100.00;100477.84;10544849;28;20039;-69
2022/11/18 18:42:49;;;;;;;16.95;11.60;;;;;;;9.72;100.00;100488.88;10559799;28;20031;-68
2022/11/18 18:47:49;;;;;;;22.60;10.15;;;;;;;9.68;100.00;100490.31;10544546;28;20078;-69
2022/11/18 18:52:50;;;;;;;22.95;12.18;;;;;;;9.64;100.00;100482.81;10544784;28;20391;-69
2022/11/18 18:57:50;;;;;;;13.02;10.35;;;;;;;9.59;100.00;100493.41;10546177;28;20055;-70
2022/11/18 19:02:51;;;;;;;11.65;9.60;;;;;;;9.57;100.00;100490.06;10544777;28;20040;-69
2022/11/18 19:07:51;;;;;;;12.75;9.55;;;;;;;9.57;100.00;100490.06;10544767;28;20031;-69
2022/11/18 19:12:51;;;;;;;18.10;11.10;;;;;;;9.57;100.00;100496.28;10545321;28;20126;-69
2022/11/18 19:17:52;;;;;;;16.70;11.48;;;;;;;9.55;100.00;100496.50;10545217;28;20040;-69
2022/11/18 19:22:52;;;;;;;11.27;9.95;;;;;;;9.56;100.00;100508.16;10559470;28;20028;-69
2022/11/18 19:27:53;;;;;;;14.60;12.25;;;;;;;9.51;100.00;100505.22;10544670;28;20479;-69
2022/11/18 19:32:54;;;;;;;17.05;12.10;;;;;;;9.51;100.00;100521.44;10544642;28;20051;-69
2022/11/18 19:37:55;;;;;;;20.67;13.35;;;;;;;9.51;100.00;100516.03;10544393;28;20050;-70
2022/11/18 19:42:55;;;;;;;14.82;11.40;;;;;;;9.55;100.00;100523.53;10543362;28;20055;-69
2022/11/18 19:47:57;;;;;;;14.35;12.77;;;;;;;9.53;100.00;100528.28;10559070;28;20407;-69
2022/11/18 19:53:30;;;;;;;19.17;13.07;;;;;;;9.51;100.00;100524.97;10541969;28;20416;-70
2022/11/18 19:58:18;;;;;;;22.05;10.88;;;;;;;9.52;100.00;100529.34;10542604;28;20388;-69
2022/11/18 20:03:18;;;;;;;16.48;13.77;;;;;;;9.52;100.00;100531.22;10543093;28;20035;-69
2022/11/18 20:08:20;;;;;;;27.85;16.73;;;;;;;9.50;100.00;100536.81;10541939;28;20040;-70
2022/11/18 20:13:20;;;;;;;23.20;15.23;;;;;;;9.43;100.00;100538.63;10558983;28;20169;-70
2022/11/18 20:18:22;;;;;;;14.02;12.55;;;;;;;9.43;100.00;100551.31;10546241;28;20043;-70
2022/11/18 20:23:22;;;;;;;14.40;12.88;;;;;;;9.45;100.00;100565.47;10545489;28;20514;-70
2022/11/18 20:28:22;;;;;;;14.85;12.60;;;;;;;9.45;100.00;100560.91;10543021;28;20035;-69
2022/11/18 20:33:23;;;;;;;13.85;12.25;;;;;;;9.57;100.00;100580.09;10541161;28;20036;-70
2022/11/18 20:38:23;;;;;;;14.45;10.93;;;;;;;9.58;100.00;100575.53;10541843;28;20055;-69
2022/11/18 20:43:23;;;;;;;14.50;11.75;;;;;;;9.60;100.00;100576.97;10540097;28;20089;-70
2022/11/18 20:48:24;;;;;;;16.55;11.60;;;;;;;9.57;100.00;100584.66;10541664;28;20048;-70
2022/11/18 20:53:25;;;;;;;20.23;13.95;;;;;;;9.55;100.00;100577.59;10541142;28;20038;-70
2022/11/18 20:58:26;;;;;;;19.27;15.93;;;;;;;9.51;100.00;100587.16;10542380;28;20112;-69
2022/11/18 21:03:26;;;;;;;22.77;15.60;;;;;;;9.49;100.00;100594.59;10557524;28;20035;-69
2022/11/18 21:08:26;;;;;;;23.25;17.15;;;;;;;9.51;100.00;100594.44;10541125;28;20035;-69
2022/11/18 21:18:46;;;;;;;23.08;18.27;;;;;;;9.47;100.00;100602.06;10541029;28;20468;-70
2022/11/18 21:23:46;;;;;;;32.20;24.02;;;;;;;9.39;100.00;100612.22;10540603;28;20039;-69
2022/11/18 21:28:47;;;;;;;31.48;23.20;;;;;;;9.29;100.00;100623.38;10541177;28;20040;-69
2022/11/18 21:33:48;;;;;;;32.08;23.35;;;;;;;9.18;100.00;100610.38;10539025;28;20379;-70
2022/11/18 21:38:49;;;;;;;30.27;22.80;;;;;;;9.12;100.00;100619.25;10538580;28;20028;-69
2022/11/18 21:43:49;;;;;;;35.42;25.33;;;;;;;9.05;100.00;100630.84;10538814;28;20032;-69
2022/11/18 21:48:49;;;;;;;39.50;27.73;;;;;;;9.02;100.00;100631.22;10540485;28;20070;-71
2022/11/18 21:53:50;;;;;;;36.65;24.80;;;;;;;9.01;100.00;100634.97;10538907;28;20047;-69
2022/11/18 21:58:51;;;;;;;32.35;26.55;;;;;;;8.99;100.00;100639.72;10539438;28;20036;-69
2022/11/18 22:03:53;;;;;;;34.20;27.50;;;;;;;8.99;100.00;100650.50;10538258;28;20028;-70
2022/11/18 22:08:53;;;;;;;53.78;30.67;;;;;;;8.93;100.00;100653.16;10538401;28;20039;-69
2022/11/18 22:13:54;;;;;;;23.25;16.58;;;;;;;8.66;100.00;100665.56;10538955;28;20032;-69
2022/11/18 22:18:55;;;;;;;11.75;10.52;;;;;;;8.31;100.00;100670.72;10544315;28;20529;-69
2022/11/18 22:23:59;;;;;;;14.18;12.57;;;;;;;8.08;100.00;100665.44;10546283;28;20040;-69
2022/11/18 22:28:59;;;;;;;14.02;11.02;;;;;;;8.01;100.00;100667.19;10545611;28;20032;-69
2022/11/18 22:34:00;;;;;;;11.80;9.73;;;;;;;7.82;100.00;100679.41;10546954;28;20094;-69
2022/11/18 22:39:00;;;;;;;12.63;10.10;;;;;;;7.51;100.00;100680.38;10550331;28;20097;-69
2022/11/18 22:44:01;;;;;;;12.48;9.77;;;;;;;7.43;100.00;100684.00;10552744;28;20506;-69
2022/11/18 22:49:02;;;;;;;9.00;7.80;;;;;;;7.42;100.00;100698.44;10546644;28;20097;-69
2022/11/18 22:54:03;;;;;;;11.35;8.07;;;;;;;7.16;100.00;100709.63;10546323;28;20115;-69
2022/11/18 22:59:03;;;;;;;18.55;11.98;;;;;;;6.97;100.00;100705.53;10545297;28;20054;-69
2022/11/18 23:04:04;;;;;;;17.27;11.50;;;;;;;6.85;100.00;100716.91;10545791;28;20086;-69
2022/11/18 23:09:04;;;;;;;17.50;12.45;;;;;;;6.64;100.00;100731.00;10546108;28;20103;-69
2022/11/18 23:14:06;;;;;;;20.17;14.80;;;;;;;6.56;100.00;100726.47;10543545;28;20406;-69
2022/11/18 23:19:14;;;;;;;16.02;12.77;;;;;;;6.49;100.00;100736.25;10543547;28;20032;-69
2022/11/18 23:24:16;;;;;;;23.70;15.90;;;;;;;6.54;100.00;100752.72;10543615;28;20024;-69
2022/11/18 23:29:17;;;;;;;15.52;11.98;;;;;;;6.33;100.00;100747.09;10542028;28;20027;-69